Antwerp, Belgium
Current Conditions -  °F | °C
As of 12:20 AM on Friday 19 Dec 2014 (Local Time) from EBAW Reporting Station
Light Rain Light Rain  
Wind Chill: 12°   Ceiling: 500
Heat Index: 12°   Visibility: 2.1mi
Dew Point: 10°   Wind: 16mph
Humidity: 88%   Direction: 230°SW
Pressure: 29.91"   Gusts: 28mph
Location:  51.26°N, 4.36°E
Report Text: EBAW 182320Z AUTO 23014G24KT 200V260 3400 -RA BR BKN005/// OVC007/// 12/10 Q1013
Loading
Personal Weather Stations






























Interactive Weather Map New forecast layout! Learn more

10-Day Weather Forecast

Advertisements
Track Severe Weather on mobile